Time;durP1;ratioP1;P1;durP2;ratioP2;P2;SDS_P1;SDS_P2;PMS_P1;PMS_P2;Temp;Humidity;BMP_temperature;BMP_pressure;BME280_temperature;BME280_humidity;BME280_pressure;Samples;Min_cycle;Max_cycle;Signal;HPM_P1;HPM_P2
2022/09/10 00:01:30;;;;;;;15.40;12.50;;;;;;;16.47;84.97;97667.71;107829;1282;22549;-91
2022/09/10 00:04:00;;;;;;;16.40;14.60;;;;;;;16.41;85.41;97668.23;107536;1282;22545;-91
2022/09/10 00:06:31;;;;;;;19.10;17.20;;;;;;;16.35;85.35;97661.16;107610;1284;22571;-90
2022/09/10 00:09:00;;;;;;;18.20;16.30;;;;;;;16.32;85.91;97662.69;107555;1282;23952;-93
2022/09/10 00:11:30;;;;;;;19.70;17.80;;;;;;;16.29;85.71;97667.42;107666;1283;22589;-93
2022/09/10 00:14:00;;;;;;;18.50;16.50;;;;;;;16.27;86.22;97673.58;107600;1281;22603;-93
2022/09/10 00:16:31;;;;;;;16.40;14.80;;;;;;;16.23;87.19;97678.02;106951;1284;22610;-92
2022/09/10 00:19:00;;;;;;;19.70;16.10;;;;;;;16.12;87.36;97675.84;106815;1284;22637;-93
2022/09/10 00:21:28;;;;;;;18.20;16.30;;;;;;;16.06;87.28;97670.11;106990;1282;23069;-91
2022/09/10 00:23:57;;;;;;;17.80;15.90;;;;;;;16.02;87.30;97661.74;107308;1282;25316;-92
2022/09/10 00:26:37;;;;;;;18.40;15.90;;;;;;;16.01;87.13;97659.01;108024;1283;22566;-92
2022/09/10 00:29:07;;;;;;;16.50;15.00;;;;;;;16.03;87.11;97653.86;107611;1283;25353;-93
2022/09/10 00:31:36;;;;;;;17.40;15.80;;;;;;;16.05;87.14;97653.33;108078;1282;23129;-92
2022/09/10 00:34:06;;;;;;;17.20;15.40;;;;;;;16.08;87.28;97654.73;108621;1281;22667;-92
2022/09/10 00:36:41;;;;;;;17.50;15.90;;;;;;;16.10;87.73;97653.96;108351;1283;22869;-94
2022/09/10 00:39:15;;;;;;;17.90;16.00;;;;;;;16.06;89.08;97652.10;108607;1283;22605;-92
2022/09/10 00:41:45;;;;;;;20.60;15.30;;;;;;;15.95;88.77;97655.63;107542;1284;23909;-92
2022/09/10 00:44:38;;;;;;;16.40;14.60;;;;;;;15.89;88.36;97653.20;107564;1283;23986;-93
2022/09/10 00:50:01;;;;;;;18.30;16.40;;;;;;;15.82;90.07;97640.63;107904;1284;22619;-93
2022/09/10 00:52:29;;;;;;;14.80;13.40;;;;;;;15.74;91.10;97639.28;107701;1284;22663;-93
2022/09/10 00:54:58;;;;;;;16.40;14.70;;;;;;;15.64;90.81;97639.18;107512;1284;22588;-91
2022/09/10 00:57:29;;;;;;;15.80;14.20;;;;;;;15.58;90.43;97641.39;107183;1284;22550;-90
2022/09/10 01:00:12;;;;;;;17.60;13.30;;;;;;;15.54;90.81;97649.71;107176;1284;24384;-90
2022/09/10 01:02:41;;;;;;;15.00;13.10;;;;;;;15.53;91.74;97658.91;107072;1284;22486;-90
2022/09/10 01:05:10;;;;;;;16.20;13.90;;;;;;;15.50;92.56;97663.79;106930;1283;22697;-93
2022/09/10 01:07:39;;;;;;;17.80;15.10;;;;;;;15.47;92.50;97677.17;106961;1284;25250;-94
2022/09/10 01:10:25;;;;;;;17.30;15.60;;;;;;;15.44;92.71;97683.67;106756;1284;22490;-92
2022/09/10 01:13:14;;;;;;;17.10;15.20;;;;;;;15.44;92.91;97691.03;106625;1284;24223;-92
2022/09/10 01:15:55;;;;;;;16.80;15.10;;;;;;;15.44;93.64;97686.52;106733;1284;22717;-89
2022/09/10 01:18:40;;;;;;;18.30;16.40;;;;;;;15.42;93.63;97685.00;106955;1284;25559;-92
2022/09/10 01:21:33;;;;;;;18.80;16.80;;;;;;;15.41;93.83;97681.92;106783;1284;22549;-91
2022/09/10 01:24:27;;;;;;;17.00;15.30;;;;;;;15.39;93.60;97683.58;106835;1284;26633;-92
2022/09/10 01:27:14;;;;;;;16.80;15.10;;;;;;;15.40;93.01;97681.06;105911;1287;22557;-92
2022/09/10 01:30:07;;;;;;;18.60;16.70;;;;;;;15.44;92.95;97679.84;106231;1287;22936;-89
2022/09/10 01:32:52;;;;;;;18.60;16.80;;;;;;;15.47;92.67;97669.70;106623;1287;25354;-92
2022/09/10 01:38:30;;;;;;;18.30;15.60;;;;;;;15.55;92.18;97658.73;108082;1281;24205;-92
2022/09/10 01:41:01;;;;;;;18.10;16.20;;;;;;;15.59;92.37;97646.77;107927;1282;22547;-91
2022/09/10 01:43:34;;;;;;;17.80;16.10;;;;;;;15.63;92.18;97638.81;107761;1282;23194;-90
2022/09/10 01:46:40;;;;;;;18.80;16.80;;;;;;;15.63;92.20;97629.05;107975;1282;22571;-91
2022/09/10 01:49:35;;;;;;;21.00;18.20;;;;;;;15.62;92.23;97626.14;108030;1282;22531;-93
2022/09/10 01:52:42;;;;;;;20.30;17.90;;;;;;;15.59;92.24;97625.97;107353;1284;23566;-93
2022/09/10 01:58:28;;;;;;;18.50;16.80;;;;;;;15.58;93.22;97628.11;107860;1280;22545;-93
2022/09/10 02:01:27;;;;;;;19.90;17.60;;;;;;;15.53;92.88;97631.29;108035;1281;25715;-91
2022/09/10 02:04:06;;;;;;;21.10;19.20;;;;;;;15.52;92.68;97634.42;107948;1282;22654;-89
2022/09/10 02:06:38;;;;;;;20.10;18.10;;;;;;;15.53;92.64;97629.35;108274;1282;22558;-92
2022/09/10 02:09:09;;;;;;;19.10;17.30;;;;;;;15.53;92.73;97627.43;107612;1282;22528;-91
2022/09/10 02:11:47;;;;;;;19.40;17.30;;;;;;;15.55;93.78;97626.30;107355;1282;22996;-91
2022/09/10 02:14:56;;;;;;;19.80;17.90;;;;;;;15.50;93.94;97625.73;107354;1284;22586;-90
2022/09/10 02:17:54;;;;;;;20.00;18.10;;;;;;;15.49;93.53;97624.63;107416;1284;22810;-92
2022/09/10 02:20:22;;;;;;;21.40;19.00;;;;;;;15.52;93.87;97621.92;107021;1284;22568;-90
2022/09/10 02:22:57;;;;;;;18.00;16.20;;;;;;;15.53;94.53;97621.48;107404;1284;24245;-91
2022/09/10 02:25:30;;;;;;;19.90;18.10;;;;;;;15.47;96.19;97621.39;106984;1284;22550;-90
2022/09/10 02:27:58;;;;;;;19.50;17.60;;;;;;;15.39;95.57;97620.27;107289;1284;23141;-93
2022/09/10 02:30:26;;;;;;;21.30;19.20;;;;;;;15.39;94.82;97613.15;107344;1284;25477;-93
2022/09/10 02:32:54;;;;;;;18.20;16.10;;;;;;;15.43;94.72;97612.96;107197;1284;22506;-93
2022/09/10 02:35:23;;;;;;;19.40;17.40;;;;;;;15.47;95.57;97612.55;107076;1284;25876;-91
2022/09/10 02:37:52;;;;;;;20.50;18.50;;;;;;;15.46;95.31;97616.00;107392;1284;22688;-93
2022/09/10 02:40:20;;;;;;;20.40;18.40;;;;;;;15.50;95.00;97613.25;107388;1284;25377;-91
2022/09/10 02:42:48;;;;;;;26.30;18.50;;;;;;;15.53;95.13;97616.79;106909;1284;22549;-90
2022/09/10 02:45:20;;;;;;;20.40;18.50;;;;;;;15.55;95.32;97607.68;107054;1284;22704;-90
2022/09/10 02:47:48;;;;;;;19.50;17.40;;;;;;;15.57;94.96;97607.05;107115;1284;23979;-91
2022/09/10 02:50:17;;;;;;;20.90;19.00;;;;;;;15.60;95.08;97610.19;107411;1284;22644;-91
2022/09/10 02:52:47;;;;;;;20.60;18.70;;;;;;;15.63;95.07;97613.77;107416;1284;22575;-92
2022/09/10 02:55:16;;;;;;;21.10;18.80;;;;;;;15.61;95.55;97615.55;107507;1284;22611;-90
2022/09/10 02:57:44;;;;;;;19.50;17.80;;;;;;;15.57;95.92;97610.92;107352;1284;22924;-92
2022/09/10 03:00:12;;;;;;;18.90;17.00;;;;;;;15.53;96.33;97609.70;107089;1284;25360;-92
2022/09/10 03:02:40;;;;;;;16.10;13.30;;;;;;;15.50;96.63;97611.61;106833;1284;24013;-87
2022/09/10 03:05:11;;;;;;;14.90;11.90;;;;;;;15.42;97.01;97609.52;107198;1284;25472;-93
2022/09/10 03:07:39;;;;;;;11.90;10.60;;;;;;;15.34;96.82;97615.38;107367;1284;22516;-96
2022/09/10 03:10:08;;;;;;;14.70;10.10;;;;;;;15.28;97.47;97619.27;107959;1284;24428;-90
2022/09/10 03:12:36;;;;;;;11.90;8.90;;;;;;;15.20;97.40;97615.05;107497;1284;24305;-92
2022/09/10 03:15:05;;;;;;;15.70;10.50;;;;;;;15.13;97.28;97621.42;107539;1283;22549;-94
2022/09/10 03:17:33;;;;;;;14.40;9.10;;;;;;;15.10;97.12;97622.70;107634;1284;22710;-91
2022/09/10 03:20:12;;;;;;;13.00;9.00;;;;;;;15.00;96.92;97612.27;108053;1284;23216;-91
2022/09/10 03:22:40;;;;;;;11.20;8.30;;;;;;;15.07;96.69;97623.44;108194;1284;22517;-91
2022/09/10 03:25:14;;;;;;;10.80;8.70;;;;;;;15.10;97.55;97613.55;108417;1284;22571;-91
2022/09/10 03:27:41;;;;;;;11.80;7.20;;;;;;;15.04;97.92;97613.73;107880;1284;22481;-92
2022/09/10 03:30:11;;;;;;;7.50;6.70;;;;;;;14.97;97.84;97613.63;107868;1284;24312;-90
2022/09/10 03:32:39;;;;;;;8.60;6.90;;;;;;;14.93;97.95;97611.17;108301;1284;22657;-92
2022/09/10 03:35:09;;;;;;;9.80;6.90;;;;;;;14.90;97.92;97608.05;107662;1284;22488;-90
2022/09/10 03:37:38;;;;;;;11.40;6.70;;;;;;;14.88;97.91;97607.48;107816;1284;22738;-90
2022/09/10 03:40:07;;;;;;;9.20;7.00;;;;;;;14.87;97.90;97604.66;108239;1284;22729;-93
2022/09/10 03:42:36;;;;;;;10.60;6.20;;;;;;;14.85;97.77;97605.02;108015;1284;22698;-88
2022/09/10 03:45:04;;;;;;;9.20;6.70;;;;;;;14.87;98.17;97601.89;108362;1284;23927;-91
2022/09/10 03:47:32;;;;;;;9.10;6.30;;;;;;;14.83;98.02;97600.05;108200;1284;22544;-92
2022/09/10 03:50:01;;;;;;;9.40;6.00;;;;;;;14.81;97.97;97600.21;107883;1284;22616;-90
2022/09/10 03:52:28;;;;;;;9.10;7.90;;;;;;;14.84;97.76;97600.53;108285;1284;22631;-91
2022/09/10 03:54:57;;;;;;;12.30;6.30;;;;;;;14.85;97.56;97606.86;108236;1283;22637;-92
2022/09/10 03:57:25;;;;;;;10.70;6.60;;;;;;;14.87;98.05;97610.01;107974;1284;24337;-92
2022/09/10 03:59:53;;;;;;;9.70;8.60;;;;;;;14.87;97.89;97616.14;107644;1284;23048;-91
2022/09/10 04:02:21;;;;;;;13.20;8.90;;;;;;;14.88;97.58;97617.77;107556;1284;23347;-89
2022/09/10 04:04:49;;;;;;;8.70;7.80;;;;;;;14.91;97.37;97619.55;106911;1285;22684;-94
2022/09/10 04:07:17;;;;;;;9.80;8.10;;;;;;;14.92;97.62;97623.69;106445;1284;22701;-94
2022/09/10 04:09:45;;;;;;;11.30;10.20;;;;;;;14.91;97.68;97625.20;106861;1284;22499;-92
2022/09/10 04:12:13;;;;;;;10.60;9.50;;;;;;;14.89;99.27;97618.23;106187;1284;24134;-92
2022/09/10 04:14:44;;;;;;;9.70;8.70;;;;;;;14.76;99.70;97616.94;105706;1284;24376;-92
2022/09/10 04:17:13;;;;;;;10.50;8.40;;;;;;;14.67;100.00;97615.73;106708;1284;25486;-83
2022/09/10 04:19:50;;;;;;;9.00;7.00;;;;;;;14.58;100.00;97607.27;107290;1283;22711;-90
2022/09/10 04:22:18;;;;;;;6.20;5.60;;;;;;;14.49;100.00;97607.58;107457;1284;22615;-93
2022/09/10 04:24:46;;;;;;;7.90;5.50;;;;;;;14.41;100.00;97604.31;106518;1284;22628;-94
2022/09/10 04:27:15;;;;;;;7.40;6.10;;;;;;;14.37;100.00;97604.95;106315;1284;25637;-89
2022/09/10 04:29:44;;;;;;;6.60;5.10;;;;;;;14.24;100.00;97604.85;106079;1284;22849;-92
2022/09/10 04:32:12;;;;;;;5.20;4.20;;;;;;;14.20;100.00;97597.10;106208;1284;22631;-93
2022/09/10 04:34:41;;;;;;;5.80;4.70;;;;;;;14.15;100.00;97596.20;106320;1284;22737;-91
2022/09/10 04:37:09;;;;;;;5.90;4.50;;;;;;;14.12;100.00;97595.08;106097;1284;22774;-91
2022/09/10 04:39:37;;;;;;;7.60;5.00;;;;;;;14.09;100.00;97594.44;106288;1284;24255;-92
2022/09/10 04:42:07;;;;;;;6.90;5.60;;;;;;;14.07;100.00;97587.27;106012;1284;24107;-90
2022/09/10 04:44:38;;;;;;;8.70;5.70;;;;;;;14.07;100.00;97588.19;106320;1284;25374;-91
2022/09/10 04:47:05;;;;;;;9.20;6.40;;;;;;;14.06;100.00;97588.55;105860;1285;24112;-92
2022/09/10 04:49:33;;;;;;;13.00;6.50;;;;;;;14.07;100.00;97582.52;105903;1284;25540;-91
2022/09/10 04:52:02;;;;;;;10.40;6.20;;;;;;;14.06;100.00;97582.27;105830;1284;23753;-92
2022/09/10 04:54:32;;;;;;;7.00;4.50;;;;;;;14.05;100.00;97580.51;105710;1284;22559;-90
2022/09/10 04:57:00;;;;;;;5.90;3.80;;;;;;;14.02;100.00;97577.91;105899;1285;24431;-89
2022/09/10 04:59:29;;;;;;;5.00;3.60;;;;;;;13.97;100.00;97571.46;106416;1284;22563;-92
2022/09/10 05:01:57;;;;;;;6.20;3.80;;;;;;;13.91;100.00;97570.01;105728;1284;24286;-92
2022/09/10 05:04:25;;;;;;;5.70;3.90;;;;;;;13.85;100.00;97565.52;105961;1285;22751;-92
2022/09/10 05:06:56;;;;;;;4.90;3.10;;;;;;;13.80;100.00;97563.52;105845;1284;25782;-89
2022/09/10 05:09:30;;;;;;;5.80;3.40;;;;;;;13.76;100.00;97556.20;105769;1284;22866;-91
2022/09/10 05:12:01;;;;;;;4.20;3.30;;;;;;;13.77;100.00;97551.42;105711;1284;25431;-90
2022/09/10 05:14:29;;;;;;;3.50;3.00;;;;;;;13.76;100.00;97549.39;105562;1284;22599;-91
2022/09/10 05:16:58;;;;;;;3.60;2.30;;;;;;;13.74;100.00;97552.33;105572;1284;25622;-92
2022/09/10 05:19:29;;;;;;;3.70;2.20;;;;;;;13.76;100.00;97553.02;105674;1285;26621;-90
2022/09/10 05:22:02;;;;;;;2.90;2.20;;;;;;;13.79;100.00;97555.39;106935;1284;22700;-90
2022/09/10 05:24:33;;;;;;;2.90;2.20;;;;;;;13.82;100.00;97556.55;106983;1284;25948;-92
2022/09/10 05:27:04;;;;;;;2.50;2.30;;;;;;;13.84;100.00;97555.71;105959;1285;24343;-91
2022/09/10 05:29:31;;;;;;;2.00;1.80;;;;;;;13.87;100.00;97558.52;105525;1285;23934;-92
2022/09/10 05:32:00;;;;;;;3.40;2.00;;;;;;;13.90;100.00;97557.78;105857;1283;25929;-91
2022/09/10 05:34:28;;;;;;;3.60;2.20;;;;;;;13.91;100.00;97558.08;105616;1284;24391;-93
2022/09/10 05:36:57;;;;;;;4.60;2.70;;;;;;;13.96;100.00;97561.54;105612;1284;23635;-91
2022/09/10 05:39:25;;;;;;;2.40;2.10;;;;;;;14.00;100.00;97561.34;105241;1285;22711;-88
2022/09/10 05:41:54;;;;;;;2.70;2.20;;;;;;;14.03;100.00;97564.34;105623;1284;24362;-91
2022/09/10 05:44:23;;;;;;;3.10;2.20;;;;;;;14.04;100.00;97566.70;105532;1284;24317;-90
2022/09/10 05:46:52;;;;;;;3.70;2.30;;;;;;;14.05;100.00;97561.77;105389;1284;23916;-91
2022/09/10 05:49:21;;;;;;;3.20;2.30;;;;;;;14.06;100.00;97560.42;105526;1284;24218;-89
2022/09/10 05:51:49;;;;;;;3.20;2.10;;;;;;;14.08;100.00;97560.58;105659;1285;25337;-92
2022/09/10 05:54:17;;;;;;;3.70;2.40;;;;;;;14.06;100.00;97556.48;105617;1284;22739;-93
2022/09/10 05:56:45;;;;;;;3.40;2.60;;;;;;;14.05;100.00;97554.27;105645;1284;24183;-92
2022/09/10 05:59:13;;;;;;;2.70;2.40;;;;;;;13.99;100.00;97553.52;105559;1284;25494;-93
2022/09/10 06:01:50;;;;;;;3.70;2.30;;;;;;;13.98;100.00;97549.23;105513;1284;24003;-91
2022/09/10 06:04:20;;;;;;;3.70;2.60;;;;;;;13.94;100.00;97541.48;105583;1284;23479;-91
2022/09/10 06:06:48;;;;;;;4.20;2.70;;;;;;;13.97;100.00;97548.27;105276;1284;24783;-89
2022/09/10 06:09:18;;;;;;;3.90;2.80;;;;;;;13.97;100.00;97545.37;105514;1284;24297;-92
2022/09/10 06:11:52;;;;;;;5.40;3.50;;;;;;;13.99;100.00;97542.74;105573;1285;22565;-91
2022/09/10 06:14:23;;;;;;;4.40;3.00;;;;;;;14.01;100.00;97538.65;105323;1284;22603;-93
2022/09/10 06:16:54;;;;;;;3.60;2.90;;;;;;;14.02;100.00;97530.86;105579;1284;22666;-93
2022/09/10 06:19:23;;;;;;;7.10;3.40;;;;;;;14.00;100.00;97531.70;105375;1285;25674;-92
2022/09/10 06:21:51;;;;;;;5.70;3.30;;;;;;;14.00;100.00;97533.65;105633;1283;24221;-92
2022/09/10 06:24:20;;;;;;;3.80;3.10;;;;;;;13.99;100.00;97529.98;105563;1284;24274;-90
2022/09/10 06:26:49;;;;;;;4.70;3.10;;;;;;;13.98;100.00;97527.67;105559;1284;22578;-89
2022/09/10 06:29:18;;;;;;;4.50;3.50;;;;;;;13.94;100.00;97526.15;105545;1284;25703;-91
2022/09/10 06:31:47;;;;;;;4.30;3.50;;;;;;;13.95;100.00;97522.00;105503;1284;22578;-91
2022/09/10 06:34:17;;;;;;;3.90;3.20;;;;;;;13.96;100.00;97520.20;105198;1284;25365;-91
2022/09/10 06:36:48;;;;;;;4.80;3.30;;;;;;;14.00;100.00;97515.62;105672;1284;22547;-91
2022/09/10 06:39:17;;;;;;;4.30;3.20;;;;;;;14.03;100.00;97515.80;105663;1284;22713;-91
2022/09/10 06:41:48;;;;;;;4.10;3.20;;;;;;;14.07;100.00;97521.23;105568;1284;25827;-92
2022/09/10 06:44:35;;;;;;;4.00;3.40;;;;;;;14.12;100.00;97516.98;105560;1284;25579;-87
2022/09/10 06:47:13;;;;;;;5.40;4.00;;;;;;;14.16;100.00;97517.59;105563;1284;22557;-91
2022/09/10 06:50:01;;;;;;;4.90;4.00;;;;;;;14.24;100.00;97516.73;105775;1284;25626;-90
2022/09/10 06:52:31;;;;;;;4.60;3.80;;;;;;;14.30;100.00;97523.77;105638;1284;25295;-89
2022/09/10 06:55:03;;;;;;;4.00;3.40;;;;;;;14.37;100.00;97524.86;105741;1284;23579;-90
2022/09/10 06:57:36;;;;;;;4.60;4.00;;;;;;;14.42;100.00;97533.89;105677;1283;26666;-93
2022/09/10 07:00:05;;;;;;;6.00;4.80;;;;;;;14.49;100.00;97540.40;105702;1284;25355;-95
2022/09/10 07:02:33;;;;;;;6.10;5.50;;;;;;;14.55;100.00;97541.96;106236;1284;23904;-91
2022/09/10 07:05:03;;;;;;;7.90;5.50;;;;;;;14.64;100.00;97542.81;105735;1284;23996;-93
2022/09/10 07:07:32;;;;;;;10.00;8.90;;;;;;;14.70;100.00;97544.11;105835;1284;22612;-92
2022/09/10 07:10:01;;;;;;;15.30;13.90;;;;;;;14.73;100.00;97548.10;105523;1285;25366;-91
2022/09/10 07:12:31;;;;;;;18.80;17.00;;;;;;;14.75;100.00;97551.58;105554;1284;22546;-89
2022/09/10 07:15:01;;;;;;;16.10;14.50;;;;;;;14.78;100.00;97555.30;105555;1284;22722;-91
2022/09/10 07:17:34;;;;;;;19.10;17.30;;;;;;;14.85;100.00;97553.23;105512;1285;24796;-91
2022/09/10 07:20:03;;;;;;;15.20;13.60;;;;;;;14.94;100.00;97554.95;105749;1284;22566;-90
2022/09/10 07:22:38;;;;;;;20.70;18.30;;;;;;;15.02;100.00;97556.98;105968;1284;22692;-91
2022/09/10 07:25:10;;;;;;;11.50;9.80;;;;;;;15.09;100.00;97559.33;105807;1284;23210;-91
2022/09/10 07:27:56;;;;;;;12.50;9.10;;;;;;;15.18;100.00;97560.95;106163;1283;22886;-92
2022/09/10 07:30:28;;;;;;;10.10;6.30;;;;;;;15.25;100.00;97563.81;106485;1284;22582;-91
2022/09/10 07:32:58;;;;;;;9.30;6.70;;;;;;;15.32;100.00;97567.21;106556;1283;22641;-92
2022/09/10 07:35:35;;;;;;;7.70;5.70;;;;;;;15.39;100.00;97568.30;106824;1284;23927;-92
2022/09/10 07:38:16;;;;;;;8.30;5.70;;;;;;;15.45;100.00;97568.96;107263;1284;22586;-89
2022/09/10 07:40:47;;;;;;;8.30;6.20;;;;;;;15.54;100.00;97571.09;108514;1284;22561;-93
2022/09/10 07:43:16;;;;;;;8.40;5.80;;;;;;;15.65;100.00;97571.56;108716;1284;22509;-93
2022/09/10 07:45:44;;;;;;;8.30;5.80;;;;;;;15.77;100.00;97574.50;108723;1284;22547;-90
2022/09/10 07:48:12;;;;;;;7.40;6.00;;;;;;;15.87;100.00;97574.81;108695;1284;22648;-87
2022/09/10 07:50:40;;;;;;;9.70;5.90;;;;;;;16.00;100.00;97582.14;108731;1284;23959;-91
2022/09/10 07:53:08;;;;;;;11.30;6.80;;;;;;;16.09;100.00;97582.32;107952;1284;25240;-92
2022/09/10 07:55:36;;;;;;;12.40;11.10;;;;;;;16.19;100.00;97579.30;106280;1284;24400;-92
2022/09/10 07:58:05;;;;;;;9.20;8.30;;;;;;;16.29;100.00;97576.68;106263;1284;24115;-91
2022/09/10 08:00:35;;;;;;;6.90;5.10;;;;;;;16.40;100.00;97577.85;106517;1284;22578;-92
2022/09/10 08:03:10;;;;;;;5.10;4.00;;;;;;;16.47;100.00;97574.42;106590;1283;24245;-91
2022/09/10 08:05:38;;;;;;;8.70;3.80;;;;;;;16.52;100.00;97570.74;106361;1284;25359;-93
2022/09/10 08:08:06;;;;;;;6.00;3.70;;;;;;;16.54;100.00;97569.79;106864;1284;22571;-92
2022/09/10 08:10:34;;;;;;;5.30;3.90;;;;;;;16.60;100.00;97568.95;107277;1284;25544;-93
2022/09/10 08:13:02;;;;;;;6.30;3.80;;;;;;;16.72;100.00;97568.69;106836;1284;22582;-93
2022/09/10 08:15:31;;;;;;;6.00;4.20;;;;;;;16.84;100.00;97564.66;106424;1284;25543;-89
2022/09/10 08:17:59;;;;;;;4.70;3.40;;;;;;;16.93;100.00;97567.09;106376;1285;22617;-93
2022/09/10 08:20:28;;;;;;;6.60;4.70;;;;;;;16.95;100.00;97566.73;106747;1283;25348;-90
2022/09/10 08:22:57;;;;;;;5.90;3.80;;;;;;;16.94;100.00;97566.66;106323;1285;24221;-92
2022/09/10 08:25:26;;;;;;;5.40;3.30;;;;;;;16.94;100.00;97567.58;105718;1284;22690;-90
2022/09/10 08:27:57;;;;;;;6.40;3.30;;;;;;;16.98;100.00;97569.84;106260;1284;22715;-91
2022/09/10 08:30:26;;;;;;;5.80;3.30;;;;;;;17.07;100.00;97570.72;106513;1284;23117;-90
2022/09/10 08:32:55;;;;;;;4.30;3.20;;;;;;;17.14;100.00;97571.38;107152;1284;22699;-94
2022/09/10 08:35:23;;;;;;;5.70;3.40;;;;;;;17.15;100.00;97575.98;107664;1284;25275;-93
2022/09/10 08:37:50;;;;;;;4.00;3.20;;;;;;;17.16;100.00;97577.40;107903;1284;22546;-92
2022/09/10 08:40:20;;;;;;;4.40;3.00;;;;;;;17.10;100.00;97583.33;108148;1284;24057;-86
2022/09/10 08:42:51;;;;;;;4.80;3.00;;;;;;;17.04;100.00;97591.32;108560;1284;22657;-93
2022/09/10 08:45:31;;;;;;;4.40;3.30;;;;;;;16.98;100.00;97593.41;108001;1285;23925;-90
2022/09/10 08:54:01;;;;;;;8.20;4.90;;;;;;;16.61;98.93;97597.35;107434;1284;23426;-93
2022/09/10 08:56:31;;;;;;;9.20;5.80;;;;;;;16.45;98.94;97594.64;107437;1284;22543;-92
2022/09/10 08:59:15;;;;;;;7.90;6.30;;;;;;;16.29;99.09;97597.83;106624;1284;23145;-92
2022/09/10 09:01:52;;;;;;;11.50;10.20;;;;;;;16.14;99.41;97596.38;106952;1284;26518;-92
2022/09/10 09:04:44;;;;;;;10.60;9.60;;;;;;;16.05;99.32;97598.04;106701;1284;22568;-91
2022/09/10 09:07:18;;;;;;;9.00;8.10;;;;;;;15.93;99.54;97594.23;106662;1284;22592;-91
2022/09/10 09:09:50;;;;;;;8.40;7.60;;;;;;;15.90;99.76;97591.98;107340;1284;26018;-92
2022/09/10 09:12:41;;;;;;;7.70;6.70;;;;;;;15.92;99.86;97587.54;106530;1284;22493;-91
2022/09/10 09:15:26;;;;;;;8.20;6.40;;;;;;;15.88;99.97;97588.50;106615;1284;23246;-90
2022/09/10 09:17:54;;;;;;;8.60;5.60;;;;;;;15.91;99.99;97583.41;106766;1283;22721;-92
2022/09/10 09:20:30;;;;;;;6.30;5.60;;;;;;;15.97;100.00;97584.30;107161;1284;25324;-91
2022/09/10 09:23:35;;;;;;;6.80;5.20;;;;;;;16.05;99.96;97585.29;106769;1284;22545;-92
2022/09/10 09:26:19;;;;;;;8.50;5.40;;;;;;;16.08;99.92;97587.73;106587;1290;22822;-93
2022/09/10 09:29:01;;;;;;;7.40;4.80;;;;;;;16.17;99.99;97585.50;106356;1290;22511;-90
2022/09/10 09:31:32;;;;;;;8.10;5.00;;;;;;;16.25;99.77;97585.89;106840;1288;22542;-93
2022/09/10 09:36:57;;;;;;;9.20;4.90;;;;;;;16.41;99.65;97578.59;107204;1284;22494;-92
2022/09/10 09:39:36;;;;;;;7.30;5.00;;;;;;;16.50;99.38;97579.25;107294;1284;23504;-88
2022/09/10 09:42:20;;;;;;;8.20;4.70;;;;;;;16.60;99.00;97580.54;107374;1284;23242;-92
2022/09/10 09:47:33;;;;;;;;;;;;;;;16.75;98.78;97585.64;107255;1284;22700;-93
2022/09/10 09:50:01;;;;;;;9.50;4.70;;;;;;;16.80;98.16;97584.30;107157;1284;25242;-89
2022/09/10 09:52:30;;;;;;;6.90;4.90;;;;;;;16.79;97.95;97583.89;106854;1284;22563;-92
2022/09/10 09:55:19;;;;;;;5.90;4.30;;;;;;;16.86;98.03;97581.27;104875;1284;2272441;-91
2022/09/10 10:00:36;;;;;;;6.00;4.60;;;;;;;17.00;96.35;97584.83;107209;1282;23062;-90
2022/09/10 10:06:09;;;;;;;9.00;4.00;;;;;;;17.02;94.58;97581.88;107163;1282;22551;-92
2022/09/10 10:08:51;;;;;;;5.50;4.20;;;;;;;17.14;95.45;97574.72;107300;1282;22551;-93
2022/09/10 10:11:20;;;;;;;5.40;3.80;;;;;;;17.46;94.89;97571.86;107605;1284;22594;-90
2022/09/10 10:13:51;;;;;;;5.80;4.00;;;;;;;17.65;93.65;97567.10;107658;1282;24235;-89
2022/09/10 10:16:34;;;;;;;4.60;3.70;;;;;;;17.88;93.56;97563.99;107115;1284;25665;-92
2022/09/10 10:21:49;;;;;;;7.50;4.00;;;;;;;18.16;90.38;97556.60;108499;1283;22670;-90
2022/09/10 10:29:59;;;;;;;7.40;4.80;;;;;;;18.16;87.81;97556.61;107561;1282;22643;-89
2022/09/10 10:32:39;;;;;;;5.40;4.20;;;;;;;18.16;87.58;97556.45;108988;1282;23990;-88
2022/09/10 10:35:31;;;;;;;4.10;3.50;;;;;;;18.22;89.23;97556.55;108535;1282;22694;-92
2022/09/10 10:38:18;;;;;;;5.60;3.90;;;;;;;18.25;86.95;97555.31;108131;1282;22706;-92
2022/09/10 10:40:55;;;;;;;5.40;3.80;;;;;;;18.21;87.60;97552.88;108162;1282;22563;-93
2022/09/10 10:46:19;;;;;;;5.60;4.30;;;;;;;18.23;86.55;97556.11;107565;1279;23920;-93
2022/09/10 10:48:53;;;;;;;5.50;4.40;;;;;;;18.21;85.16;97554.28;108178;1279;22684;-93
2022/09/10 10:51:51;;;;;;;5.10;3.40;;;;;;;18.20;84.66;97557.37;108381;1279;22571;-92
2022/09/10 10:54:22;;;;;;;6.10;3.80;;;;;;;18.19;84.23;97552.70;108309;1279;22607;-91
2022/09/10 10:57:03;;;;;;;7.10;3.70;;;;;;;18.21;82.73;97554.06;107775;1279;22591;-91
2022/09/10 10:59:51;;;;;;;6.30;4.00;;;;;;;18.27;83.65;97553.33;107869;1279;24309;-91
2022/09/10 11:02:32;;;;;;;6.80;4.80;;;;;;;18.32;83.32;97548.21;106849;1279;22584;-93
2022/09/10 11:05:19;;;;;;;6.60;4.70;;;;;;;18.37;83.23;97547.38;107516;1279;22669;-91
2022/09/10 11:07:47;;;;;;;6.90;4.30;;;;;;;18.45;82.19;97549.72;106851;1279;23500;-92
2022/09/10 11:10:34;;;;;;;6.60;4.00;;;;;;;18.37;81.92;97545.29;106742;1279;24268;-92
2022/09/10 11:13:13;;;;;;;6.10;4.40;;;;;;;18.36;82.21;97539.11;107045;1279;22778;-90
2022/09/10 11:16:05;;;;;;;6.30;4.50;;;;;;;18.44;82.35;97536.21;107667;1279;22557;-89
2022/09/10 11:18:32;;;;;;;9.00;4.80;;;;;;;18.58;81.13;97537.89;107397;1281;22546;-90
2022/09/10 11:21:37;;;;;;;6.00;3.90;;;;;;;18.74;78.71;97535.96;107600;1280;25424;-89
2022/09/10 11:27:40;;;;;;;6.10;4.30;;;;;;;18.88;76.54;97543.64;106991;1282;22857;-90
2022/09/10 11:30:15;;;;;;;6.30;4.10;;;;;;;18.83;76.59;97540.60;106979;1282;22865;-92
2022/09/10 11:33:18;;;;;;;5.60;4.20;;;;;;;18.83;77.02;97536.85;107135;1281;22556;-92
2022/09/10 11:38:51;;;;;;;5.50;3.90;;;;;;;18.89;78.26;97534.06;107086;1284;25393;-92
2022/09/10 11:41:22;;;;;;;8.40;4.20;;;;;;;18.93;75.63;97531.48;107333;1284;22636;-91
2022/09/10 11:43:57;;;;;;;5.60;4.10;;;;;;;18.88;75.91;97526.80;107070;1284;22587;-89
2022/09/10 11:46:38;;;;;;;5.70;4.10;;;;;;;18.89;75.32;97523.38;107235;1283;22719;-89
2022/09/10 11:49:21;;;;;;;5.70;3.80;;;;;;;18.90;75.90;97520.60;106572;1284;25372;-91
2022/09/10 11:51:50;;;;;;;5.40;3.80;;;;;;;18.99;76.53;97520.45;106847;1284;23164;-88
2022/09/10 11:54:30;;;;;;;8.40;3.90;;;;;;;19.05;76.40;97518.23;106500;1284;22705;-90
2022/09/10 11:57:30;;;;;;;6.90;4.00;;;;;;;19.11;76.64;97515.51;106917;1284;25262;-91
2022/09/10 12:00:24;;;;;;;6.30;3.90;;;;;;;19.21;76.35;97513.02;106965;1284;24313;-87
2022/09/10 12:03:12;;;;;;;;;;;;;;;19.19;76.13;97511.13;107115;1284;23108;-90
2022/09/10 12:05:55;;;;;;;6.80;3.60;;;;;;;19.20;77.25;97514.39;106604;1284;24359;-90
2022/09/10 12:08:55;;;;;;;5.20;3.40;;;;;;;19.15;73.51;97510.19;107161;1284;22709;-92
2022/09/10 12:11:38;;;;;;;7.00;3.80;;;;;;;18.85;72.88;97507.70;106477;1284;22651;-91
2022/09/10 12:14:12;;;;;;;5.70;3.80;;;;;;;18.68;73.12;97500.98;106198;1287;22669;-91
2022/09/10 12:16:47;;;;;;;6.90;4.50;;;;;;;18.69;74.14;97498.67;106407;1287;22581;-90
2022/09/10 12:22:35;;;;;;;4.20;3.40;;;;;;;19.55;73.62;97493.10;107299;1283;23840;-92
2022/09/10 12:25:08;;;;;;;6.70;3.80;;;;;;;19.63;73.34;97495.33;105992;1282;22740;-92
2022/09/10 12:28:07;;;;;;;5.90;3.70;;;;;;;19.54;72.37;97487.31;106359;1282;24264;-91
2022/09/10 12:33:23;;;;;;;5.80;3.70;;;;;;;19.56;73.00;97480.31;107215;1284;22540;-92
2022/09/10 12:35:51;;;;;;;5.60;4.10;;;;;;;19.65;73.86;97475.14;107140;1284;22548;-90
2022/09/10 12:38:41;;;;;;;3.40;2.70;;;;;;;19.83;71.48;97474.47;107896;1284;24256;-91